Terminal Aerodrome Forecast
Issued by NWS

Home | Current Version | Previous Version | Text Only | Print | Product List | Glossary On
Versions: 1 2 3 4 5 6 7 8 9 10 11 12 13 14 15 16 17 18 19 20 21 22 23
000
FTPA31 PHFO 202300
TAFJHM
TAF
PHJH 202325Z 2100/2124 34004KT P6SM FEW045
     FM210400 06010KT P6SM SCT045
     FM211200 VRB04KT P6SM SCT045
     FM212100 24007KT P6SM FEW030 BKN045
      AMD NOT SKED AFT 210400=

USA.gov is the U.S. government's official web portal to all federal, state and local government web resources and services.